createdAt,value
2019-03-27T00:02:00.377Z,5.41
2019-03-27T00:04:28.638Z,5.41
2019-03-27T00:06:56.957Z,5.40
2019-03-27T00:09:25.324Z,5.39
2019-03-27T00:11:53.673Z,5.37
2019-03-27T00:14:24.477Z,5.35
2019-03-27T00:16:52.876Z,5.33
2019-03-27T00:19:21.141Z,5.29
2019-03-27T00:21:49.448Z,5.26
2019-03-27T00:24:19.966Z,5.24
2019-03-27T00:26:48.320Z,5.24
2019-03-27T00:29:19.496Z,5.21
2019-03-27T00:31:47.849Z,5.18
2019-03-27T00:34:16.164Z,5.13
2019-03-27T00:36:44.459Z,5.15
2019-03-27T00:39:12.720Z,5.14
2019-03-27T00:41:40.989Z,5.13
2019-03-27T00:44:09.339Z,5.09
2019-03-27T00:46:37.701Z,5.05
2019-03-27T00:49:06.180Z,4.99
2019-03-27T00:51:34.578Z,4.95
2019-03-27T00:54:02.953Z,4.92
2019-03-27T00:56:33.071Z,4.91
2019-03-27T00:59:03.114Z,4.88
2019-03-27T01:01:31.436Z,4.89
2019-03-27T01:03:59.782Z,4.90
2019-03-27T01:06:28.117Z,4.88
2019-03-27T01:08:56.445Z,4.87
2019-03-27T01:11:24.707Z,4.87
2019-03-27T01:13:53.112Z,4.87
2019-03-27T01:16:21.424Z,4.88
2019-03-27T01:18:49.730Z,4.90
2019-03-27T01:21:18.113Z,4.91
2019-03-27T01:23:46.393Z,4.93
2019-03-27T01:26:14.772Z,4.94
2019-03-27T01:28:44.706Z,4.95
2019-03-27T01:31:14.668Z,4.97
2019-03-27T01:33:42.996Z,4.95
2019-03-27T01:36:11.450Z,4.95
2019-03-27T01:38:39.772Z,4.99
2019-03-27T01:41:08.152Z,4.98
2019-03-27T01:43:38.051Z,4.99
2019-03-27T01:46:06.379Z,5.02
2019-03-27T01:48:34.653Z,5.02
2019-03-27T01:51:02.934Z,4.98
2019-03-27T01:53:31.264Z,4.99
2019-03-27T01:55:59.544Z,4.99
2019-03-27T01:58:27.826Z,4.99
2019-03-27T02:00:56.127Z,4.97
2019-03-27T02:03:24.392Z,4.96
2019-03-27T02:05:52.721Z,4.95
2019-03-27T02:08:21.075Z,4.90
2019-03-27T02:10:49.322Z,4.88
2019-03-27T02:13:17.603Z,4.85
2019-03-27T02:15:45.904Z,4.87
2019-03-27T02:18:14.155Z,4.87
2019-03-27T02:20:42.513Z,4.87
2019-03-27T02:23:10.867Z,4.90
2019-03-27T02:25:39.251Z,4.90
2019-03-27T02:28:07.604Z,4.88
2019-03-27T02:30:35.896Z,4.88
2019-03-27T02:33:04.149Z,4.90
2019-03-27T02:35:32.536Z,4.90
2019-03-27T02:38:01.026Z,4.88
2019-03-27T02:40:29.274Z,4.86
2019-03-27T02:42:57.784Z,4.83
2019-03-27T02:45:26.083Z,4.83
2019-03-27T02:47:54.371Z,4.82
2019-03-27T02:50:22.650Z,4.81
2019-03-27T02:52:50.933Z,4.77
2019-03-27T02:55:19.288Z,4.76
2019-03-27T02:57:47.568Z,4.75
2019-03-27T03:00:15.861Z,4.72
2019-03-27T03:02:44.237Z,4.67
2019-03-27T03:05:12.508Z,4.68
2019-03-27T03:07:40.821Z,4.67
2019-03-27T03:10:09.536Z,4.67
2019-03-27T03:12:37.940Z,4.65
2019-03-27T03:15:06.236Z,4.66
2019-03-27T03:17:34.548Z,4.66
2019-03-27T03:20:02.925Z,4.66
2019-03-27T03:22:31.181Z,4.67
2019-03-27T03:24:59.565Z,4.66
2019-03-27T03:27:28.000Z,4.66
2019-03-27T03:29:57.868Z,4.62
2019-03-27T03:32:26.213Z,4.63
2019-03-27T03:34:54.475Z,4.57
2019-03-27T03:37:22.750Z,4.58
2019-03-27T03:39:51.054Z,4.57
2019-03-27T03:42:19.341Z,4.57
2019-03-27T03:44:47.591Z,4.50
2019-03-27T03:47:15.867Z,1.81
2019-03-27T03:49:44.122Z,4.50
2019-03-27T03:52:12.384Z,4.47
2019-03-27T03:54:40.734Z,4.47
2019-03-27T03:57:09.113Z,4.46
2019-03-27T03:59:37.381Z,4.45
2019-03-27T04:02:05.704Z,4.42
2019-03-27T04:04:34.070Z,4.45
2019-03-27T04:07:02.364Z,4.46
2019-03-27T04:09:30.648Z,4.47
2019-03-27T04:11:58.912Z,4.42
2019-03-27T04:14:27.167Z,4.44
2019-03-27T04:16:57.050Z,4.46
2019-03-27T04:19:25.390Z,4.46
2019-03-27T04:21:53.631Z,4.45
2019-03-27T04:24:21.927Z,4.47
2019-03-27T04:26:50.336Z,4.50
2019-03-27T04:29:18.669Z,4.51
2019-03-27T04:31:47.002Z,4.49
2019-03-27T04:34:15.250Z,4.50
2019-03-27T04:36:43.508Z,4.49
2019-03-27T04:39:11.891Z,4.46
2019-03-27T04:41:40.244Z,4.44
2019-03-27T04:44:08.566Z,4.42
2019-03-27T04:46:36.842Z,4.42
2019-03-27T04:49:07.664Z,4.42
2019-03-27T04:51:35.328Z,4.40
2019-03-27T04:54:03.687Z,4.42
2019-03-27T04:56:32.069Z,4.41
2019-03-27T04:59:00.388Z,4.38
2019-03-27T05:01:28.799Z,4.38
2019-03-27T05:03:57.309Z,4.39
2019-03-27T05:06:25.750Z,-1.43
2019-03-27T05:08:54.064Z,4.34
2019-03-27T05:11:22.347Z,4.33
2019-03-27T05:13:50.763Z,4.35
2019-03-27T05:16:19.073Z,4.33
2019-03-27T05:18:47.466Z,4.31
2019-03-27T05:21:15.733Z,4.30
2019-03-27T05:23:44.013Z,4.32
2019-03-27T05:26:12.382Z,4.32
2019-03-27T05:28:40.695Z,4.36
2019-03-27T05:31:09.022Z,4.36
2019-03-27T05:33:37.431Z,4.38
2019-03-27T05:36:05.861Z,4.39
2019-03-27T05:38:34.340Z,4.41
2019-03-27T05:41:02.618Z,4.42
2019-03-27T05:43:30.954Z,4.44
2019-03-27T05:45:59.243Z,4.44
2019-03-27T05:48:30.434Z,4.48
2019-03-27T05:50:58.752Z,4.48
2019-03-27T05:53:27.036Z,4.47
2019-03-27T05:55:55.296Z,4.48
2019-03-27T05:58:23.556Z,4.48
2019-03-27T06:00:51.840Z,4.50
2019-03-27T06:03:20.174Z,4.50
2019-03-27T06:05:48.445Z,4.50
2019-03-27T06:08:16.707Z,4.55
2019-03-27T06:10:45.021Z,4.57
2019-03-27T06:13:13.293Z,4.58
2019-03-27T06:15:44.877Z,4.58
2019-03-27T06:18:13.425Z,4.65
2019-03-27T06:20:41.558Z,4.72
2019-03-27T06:23:09.869Z,4.77
2019-03-27T06:25:38.169Z,4.82
2019-03-27T06:28:06.471Z,4.89
2019-03-27T06:30:34.744Z,4.95
2019-03-27T06:33:03.022Z,5.03
2019-03-27T06:35:31.361Z,5.09
2019-03-27T06:37:59.714Z,5.17
2019-03-27T06:40:28.009Z,5.22
2019-03-27T06:42:56.376Z,5.23
2019-03-27T06:45:24.617Z,5.28
2019-03-27T06:47:53.166Z,5.34
2019-03-27T06:50:21.450Z,5.37
2019-03-27T06:52:49.707Z,5.40
2019-03-27T06:55:18.010Z,5.46
2019-03-27T06:57:46.396Z,5.52
2019-03-27T07:00:14.752Z,5.59
2019-03-27T07:02:43.025Z,5.68
2019-03-27T07:05:11.335Z,5.79
2019-03-27T07:07:39.734Z,5.83
2019-03-27T07:10:08.000Z,5.92
2019-03-27T07:12:36.359Z,5.98
2019-03-27T07:15:05.889Z,6.08
2019-03-27T07:17:34.149Z,6.19
2019-03-27T07:20:02.576Z,6.27
2019-03-27T07:22:30.839Z,6.39
2019-03-27T07:24:59.100Z,6.49
2019-03-27T07:27:27.354Z,6.58
2019-03-27T07:29:55.619Z,6.66
2019-03-27T07:32:23.898Z,6.72
2019-03-27T07:34:52.155Z,6.82
2019-03-27T07:37:20.454Z,6.89
2019-03-27T07:39:48.712Z,6.99
2019-03-27T07:42:16.968Z,7.10
2019-03-27T07:44:45.230Z,7.18
2019-03-27T07:47:13.489Z,7.28
2019-03-27T07:49:41.755Z,7.29
2019-03-27T07:52:10.016Z,7.39
2019-03-27T07:54:38.296Z,7.47
2019-03-27T07:57:06.563Z,7.57
2019-03-27T07:59:34.813Z,7.67
2019-03-27T08:02:03.088Z,7.74
2019-03-27T08:04:31.356Z,7.85
2019-03-27T08:06:59.628Z,7.95
2019-03-27T08:09:28.267Z,8.02
2019-03-27T08:11:56.525Z,8.07
2019-03-27T08:14:24.770Z,8.08
2019-03-27T08:16:53.107Z,8.15
2019-03-27T08:19:21.384Z,8.20
2019-03-27T08:21:49.651Z,8.30
2019-03-27T08:24:17.917Z,8.41
2019-03-27T08:26:46.167Z,8.53
2019-03-27T08:29:14.432Z,8.41
2019-03-27T08:31:42.715Z,8.42
2019-03-27T08:34:10.969Z,8.47
2019-03-27T08:36:39.234Z,8.58
2019-03-27T08:39:08.525Z,8.64
2019-03-27T08:41:37.249Z,8.77
2019-03-27T08:44:07.312Z,8.94
2019-03-27T08:46:35.573Z,8.93
2019-03-27T08:49:03.833Z,9.04
2019-03-27T08:51:32.095Z,9.02
2019-03-27T08:54:00.348Z,8.97
2019-03-27T08:56:28.664Z,8.78
2019-03-27T08:58:56.930Z,8.81
2019-03-27T09:01:25.193Z,8.99
2019-03-27T09:03:53.450Z,9.15
2019-03-27T09:06:33.149Z,9.28
2019-03-27T09:08:52.264Z,9.39
2019-03-27T09:11:20.524Z,9.35
2019-03-27T09:13:48.857Z,9.48
2019-03-27T09:16:17.120Z,9.46
2019-03-27T09:18:45.385Z,9.27
2019-03-27T09:21:13.640Z,9.39
2019-03-27T09:23:41.902Z,9.50
2019-03-27T09:26:10.255Z,9.66
2019-03-27T09:28:38.525Z,9.79
2019-03-27T09:31:07.085Z,9.59
2019-03-27T09:33:35.643Z,9.35
2019-03-27T09:36:04.410Z,9.35
2019-03-27T09:38:33.072Z,9.46
2019-03-27T09:41:01.351Z,9.69
2019-03-27T09:43:29.616Z,9.86
2019-03-27T09:46:03.252Z,10.10
2019-03-27T09:48:31.512Z,10.22
2019-03-27T09:50:59.777Z,10.22
2019-03-27T09:53:28.046Z,10.31
2019-03-27T09:55:56.300Z,10.34
2019-03-27T09:58:24.560Z,9.96
2019-03-27T10:00:55.106Z,9.69
2019-03-27T10:03:23.423Z,9.83
2019-03-27T10:05:51.786Z,9.92
2019-03-27T10:08:20.045Z,10.02
2019-03-27T10:10:49.071Z,9.72
2019-03-27T10:13:17.519Z,9.43
2019-03-27T10:15:45.868Z,9.44
2019-03-27T10:18:14.274Z,9.64
2019-03-27T10:20:42.506Z,9.91
2019-03-27T10:23:10.763Z,10.19
2019-03-27T10:25:39.121Z,10.47
2019-03-27T10:28:07.362Z,10.77
2019-03-27T10:30:35.628Z,11.11
2019-03-27T10:33:03.893Z,11.41
2019-03-27T10:35:32.222Z,11.69
2019-03-27T10:38:00.498Z,12.01
2019-03-27T10:40:28.761Z,12.05
2019-03-27T10:42:57.014Z,11.82
2019-03-27T10:45:25.278Z,11.71
2019-03-27T10:47:53.546Z,11.73
2019-03-27T10:50:21.813Z,11.70
2019-03-27T10:52:50.095Z,11.71
2019-03-27T10:55:18.493Z,11.37
2019-03-27T10:57:51.130Z,11.38
2019-03-27T11:00:19.500Z,11.66
2019-03-27T11:02:47.741Z,11.90
2019-03-27T11:05:16.661Z,12.22
2019-03-27T11:07:45.059Z,12.64
2019-03-27T11:10:13.507Z,12.80
2019-03-27T11:12:41.781Z,12.91
2019-03-27T11:15:10.792Z,12.96
2019-03-27T11:17:39.153Z,13.23
2019-03-27T11:20:10.083Z,12.98
2019-03-27T11:22:38.437Z,12.80
2019-03-27T11:25:10.415Z,12.38
2019-03-27T11:27:38.780Z,12.31
2019-03-27T11:30:07.222Z,12.18
2019-03-27T11:32:37.118Z,12.21
2019-03-27T11:35:06.116Z,12.58
2019-03-27T11:37:34.522Z,12.68
2019-03-27T11:40:02.821Z,12.73
2019-03-27T11:42:31.206Z,12.87
2019-03-27T11:44:59.611Z,12.84
2019-03-27T11:47:27.928Z,12.62
2019-03-27T11:49:56.332Z,12.69
2019-03-27T11:52:29.719Z,12.79
2019-03-27T11:54:57.917Z,12.74
2019-03-27T11:57:28.313Z,12.68
2019-03-27T11:59:56.735Z,12.69
2019-03-27T12:02:29.433Z,12.85
2019-03-27T12:04:57.802Z,12.89
2019-03-27T12:07:26.091Z,12.14
2019-03-27T12:09:54.374Z,11.78
2019-03-27T12:12:22.631Z,11.87
2019-03-27T12:14:51.894Z,11.96
2019-03-27T12:17:20.158Z,12.04
2019-03-27T12:19:48.407Z,12.07
2019-03-27T12:22:16.682Z,12.10
2019-03-27T12:24:44.944Z,12.16
2019-03-27T12:27:13.216Z,12.16
2019-03-27T12:29:41.474Z,12.21
2019-03-27T12:32:09.756Z,12.36
2019-03-27T12:34:38.004Z,12.49
2019-03-27T12:37:06.294Z,12.60
2019-03-27T12:39:34.543Z,12.59
2019-03-27T12:42:02.797Z,12.48
2019-03-27T12:44:31.136Z,12.12
2019-03-27T12:46:59.454Z,12.13
2019-03-27T12:49:27.740Z,12.09
2019-03-27T12:51:55.998Z,12.13
2019-03-27T12:54:24.263Z,12.13
2019-03-27T12:56:52.524Z,12.07
2019-03-27T12:59:20.777Z,12.12
2019-03-27T13:01:49.036Z,12.03
2019-03-27T13:04:17.285Z,11.95
2019-03-27T13:06:45.621Z,11.98
2019-03-27T13:09:13.885Z,12.05
2019-03-27T13:11:42.136Z,12.16
2019-03-27T13:14:10.392Z,12.38
2019-03-27T13:16:38.649Z,12.68
2019-03-27T13:19:06.897Z,12.99
2019-03-27T13:21:35.153Z,13.23
2019-03-27T13:24:03.418Z,13.36
2019-03-27T13:26:31.672Z,13.28
2019-03-27T13:28:59.924Z,12.71
2019-03-27T13:31:28.179Z,12.63
2019-03-27T13:33:56.428Z,12.61
2019-03-27T13:36:24.680Z,12.37
2019-03-27T13:38:52.940Z,12.28
2019-03-27T13:41:21.202Z,12.05
2019-03-27T13:43:49.451Z,11.75
2019-03-27T13:46:17.784Z,11.51
2019-03-27T13:48:46.044Z,11.35
2019-03-27T13:51:14.306Z,11.42
2019-03-27T13:53:42.565Z,11.55
2019-03-27T13:56:10.847Z,11.70
2019-03-27T13:58:39.101Z,11.79
2019-03-27T14:01:08.871Z,11.87
2019-03-27T14:03:37.486Z,11.89
2019-03-27T14:06:05.740Z,11.78
2019-03-27T14:08:34.001Z,11.68
2019-03-27T14:11:02.252Z,11.70
2019-03-27T14:13:30.500Z,11.53
2019-03-27T14:15:58.761Z,11.33
2019-03-27T14:18:27.032Z,11.42
2019-03-27T14:20:55.303Z,11.48
2019-03-27T14:23:23.840Z,11.52
2019-03-27T14:25:52.089Z,11.56
2019-03-27T14:28:20.351Z,11.59
2019-03-27T14:30:49.945Z,11.60
2019-03-27T14:33:18.707Z,8.35
2019-03-27T14:35:47.034Z,11.57
2019-03-27T14:38:15.363Z,11.55
2019-03-27T14:40:43.687Z,11.54
2019-03-27T14:43:11.938Z,11.49
2019-03-27T14:45:40.199Z,11.45
2019-03-27T14:48:08.441Z,11.48
2019-03-27T14:50:36.688Z,11.42
2019-03-27T14:53:04.937Z,11.38
2019-03-27T14:55:33.215Z,11.35
2019-03-27T14:58:01.471Z,11.33
2019-03-27T15:00:29.718Z,11.32
2019-03-27T15:02:58.005Z,11.33
2019-03-27T15:05:26.343Z,11.33
2019-03-27T15:07:54.595Z,11.35
2019-03-27T15:10:22.852Z,11.32
2019-03-27T15:12:51.126Z,11.33
2019-03-27T15:15:19.358Z,11.38
2019-03-27T15:17:47.599Z,11.40
2019-03-27T15:20:16.042Z,11.32
2019-03-27T15:22:44.297Z,11.25
2019-03-27T15:25:12.576Z,11.08
2019-03-27T15:27:40.835Z,11.04
2019-03-27T15:30:12.767Z,11.06
2019-03-27T15:32:41.093Z,11.06
2019-03-27T15:35:09.725Z,11.10
2019-03-27T15:37:37.965Z,11.13
2019-03-27T15:40:06.749Z,11.16
2019-03-27T15:42:35.014Z,11.25
2019-03-27T15:45:05.303Z,11.33
2019-03-27T15:47:33.555Z,11.37
2019-03-27T15:50:01.810Z,11.43
2019-03-27T15:52:36.510Z,11.44
2019-03-27T15:55:00.403Z,11.48
2019-03-27T15:57:28.649Z,11.50
2019-03-27T15:59:56.895Z,11.51
2019-03-27T16:02:25.150Z,11.54
2019-03-27T16:04:53.609Z,11.57
2019-03-27T16:07:22.058Z,11.57
2019-03-27T16:09:50.302Z,11.57
2019-03-27T16:12:19.595Z,11.59
2019-03-27T16:14:47.843Z,11.57
2019-03-27T16:17:16.101Z,11.55
2019-03-27T16:19:44.346Z,11.52
2019-03-27T16:22:12.627Z,11.49
2019-03-27T16:24:40.875Z,11.46
2019-03-27T16:27:09.138Z,11.44
2019-03-27T16:29:37.392Z,11.42
2019-03-27T16:32:05.909Z,11.38
2019-03-27T16:34:34.602Z,11.35
2019-03-27T16:37:02.935Z,11.30
2019-03-27T16:39:31.272Z,11.27
2019-03-27T16:41:59.552Z,11.24
2019-03-27T16:44:27.821Z,11.19
2019-03-27T16:46:56.277Z,11.13
2019-03-27T16:49:25.588Z,11.09
2019-03-27T16:51:56.408Z,11.05
2019-03-27T16:54:23.870Z,10.75
2019-03-27T16:56:52.215Z,10.96
2019-03-27T16:59:20.468Z,10.92
2019-03-27T17:01:48.753Z,10.88
2019-03-27T17:04:17.013Z,10.81
2019-03-27T17:06:45.485Z,10.75
2019-03-27T17:09:13.781Z,10.71
2019-03-27T17:11:42.060Z,10.64
2019-03-27T17:14:10.402Z,10.59
2019-03-27T17:16:38.657Z,10.52
2019-03-27T17:19:06.950Z,10.44
2019-03-27T17:21:35.325Z,10.41
2019-03-27T17:24:03.673Z,10.34
2019-03-27T17:26:31.935Z,10.29
2019-03-27T17:29:00.217Z,10.22
2019-03-27T17:31:28.510Z,10.16
2019-03-27T17:33:56.781Z,10.08
2019-03-27T17:36:25.049Z,9.90
2019-03-27T17:38:53.343Z,9.69
2019-03-27T17:41:21.640Z,5.08
2019-03-27T17:43:49.969Z,9.52
2019-03-27T17:46:18.761Z,9.48
2019-03-27T17:48:47.025Z,9.42
2019-03-27T17:51:15.315Z,7.06
2019-03-27T17:53:43.959Z,9.27
2019-03-27T17:56:12.252Z,7.65
2019-03-27T17:58:40.516Z,9.17
2019-03-27T18:01:08.898Z,9.07
2019-03-27T18:03:37.168Z,9.04
2019-03-27T18:06:05.432Z,8.98
2019-03-27T18:08:33.733Z,8.97
2019-03-27T18:11:01.991Z,8.96
2019-03-27T18:13:30.296Z,8.92
2019-03-27T18:16:23.107Z,8.92
2019-03-27T18:18:51.370Z,8.92
2019-03-27T18:21:21.246Z,8.93
2019-03-27T18:23:51.479Z,8.94
2019-03-27T18:26:19.809Z,8.94
2019-03-27T18:28:48.119Z,8.97
2019-03-27T18:31:16.557Z,8.97
2019-03-27T18:33:44.844Z,8.99
2019-03-27T18:36:13.100Z,8.95
2019-03-27T18:38:41.425Z,8.95
2019-03-27T18:41:09.761Z,8.97
2019-03-27T18:43:38.039Z,8.97
2019-03-27T18:46:06.289Z,8.94
2019-03-27T18:48:34.556Z,8.96
2019-03-27T18:51:02.840Z,8.97
2019-03-27T18:53:31.216Z,8.93
2019-03-27T18:55:59.462Z,8.92
2019-03-27T18:58:27.738Z,8.92
2019-03-27T19:00:56.024Z,8.91
2019-03-27T19:03:24.282Z,8.92
2019-03-27T19:05:52.551Z,8.88
2019-03-27T19:08:20.861Z,8.85
2019-03-27T19:10:49.127Z,8.80
2019-03-27T19:13:17.417Z,8.78
2019-03-27T19:15:45.684Z,8.75
2019-03-27T19:18:13.962Z,8.74
2019-03-27T19:20:42.243Z,8.69
2019-03-27T19:23:10.607Z,8.66
2019-03-27T19:25:38.885Z,8.65
2019-03-27T19:28:07.144Z,8.63
2019-03-27T19:30:35.498Z,8.61
2019-03-27T19:33:03.783Z,8.60
2019-03-27T19:35:32.113Z,8.58
2019-03-27T19:38:00.383Z,8.54
2019-03-27T19:40:28.661Z,8.54
2019-03-27T19:42:56.932Z,8.51
2019-03-27T19:45:25.182Z,8.50
2019-03-27T19:47:53.434Z,8.44
2019-03-27T19:50:21.721Z,8.41
2019-03-27T19:52:49.970Z,8.37
2019-03-27T19:55:18.313Z,8.34
2019-03-27T19:57:46.579Z,8.33
2019-03-27T20:00:14.917Z,8.33
2019-03-27T20:02:43.183Z,8.32
2019-03-27T20:05:11.503Z,8.31
2019-03-27T20:07:39.803Z,8.28
2019-03-27T20:10:08.137Z,8.24
2019-03-27T20:12:36.532Z,8.25
2019-03-27T20:15:12.397Z,8.27
2019-03-27T20:17:37.126Z,8.23
2019-03-27T20:20:08.562Z,8.18
2019-03-27T20:22:36.854Z,8.15
2019-03-27T20:25:07.947Z,8.12
2019-03-27T20:27:36.296Z,8.08
2019-03-27T20:30:07.858Z,8.06
2019-03-27T20:32:36.117Z,8.00
2019-03-27T20:35:06.217Z,7.95
2019-03-27T20:37:34.509Z,7.94
2019-03-27T20:40:04.965Z,7.94
2019-03-27T20:42:33.231Z,7.93
2019-03-27T20:45:01.520Z,7.90
2019-03-27T20:47:29.758Z,7.87
2019-03-27T20:49:58.025Z,6.67
2019-03-27T20:52:26.277Z,7.84
2019-03-27T20:54:55.563Z,7.83
2019-03-27T20:57:23.964Z,7.81
2019-03-27T20:59:52.220Z,7.79
2019-03-27T21:02:20.589Z,7.75
2019-03-27T21:04:48.831Z,7.70
2019-03-27T21:07:17.158Z,7.66
2019-03-27T21:09:45.424Z,7.64
2019-03-27T21:12:13.679Z,7.64
2019-03-27T21:14:41.935Z,7.60
2019-03-27T21:17:10.279Z,7.56
2019-03-27T21:19:38.552Z,7.52
2019-03-27T21:22:06.832Z,7.46
2019-03-27T21:24:35.074Z,7.43
2019-03-27T21:27:03.347Z,7.44
2019-03-27T21:29:31.606Z,7.44
2019-03-27T21:31:59.868Z,7.44
2019-03-27T21:34:28.136Z,7.43
2019-03-27T21:36:56.515Z,7.43
2019-03-27T21:39:26.033Z,7.45
2019-03-27T21:41:54.482Z,7.49
2019-03-27T21:44:22.763Z,7.54
2019-03-27T21:46:51.313Z,7.56
2019-03-27T21:49:19.783Z,7.53
2019-03-27T21:51:48.076Z,7.48
2019-03-27T21:54:16.325Z,7.46
2019-03-27T21:56:44.728Z,7.42
2019-03-27T21:59:12.964Z,7.35
2019-03-27T22:01:41.243Z,7.33
2019-03-27T22:04:09.558Z,7.29
2019-03-27T22:06:37.891Z,7.26
2019-03-27T22:09:08.857Z,7.24
2019-03-27T22:11:36.877Z,7.31
2019-03-27T22:14:05.149Z,7.31
2019-03-27T22:16:33.496Z,7.26
2019-03-27T22:19:01.763Z,7.21
2019-03-27T22:21:30.038Z,7.14
2019-03-27T22:23:58.444Z,7.08
2019-03-27T22:26:26.737Z,7.09
2019-03-27T22:28:55.006Z,7.14
2019-03-27T22:31:25.849Z,7.12
2019-03-27T22:33:54.155Z,7.04
2019-03-27T22:36:22.496Z,6.98
2019-03-27T22:38:50.746Z,6.94
2019-03-27T22:41:19.033Z,6.92
2019-03-27T22:43:47.310Z,6.92
2019-03-27T22:46:15.587Z,6.92
2019-03-27T22:48:43.859Z,6.91
2019-03-27T22:51:12.114Z,6.89
2019-03-27T22:53:40.387Z,6.85
2019-03-27T22:56:08.684Z,6.88
2019-03-27T22:58:36.937Z,6.91
2019-03-27T23:01:05.199Z,6.93
2019-03-27T23:03:33.636Z,6.94
2019-03-27T23:06:01.902Z,6.96
2019-03-27T23:08:30.170Z,6.96
2019-03-27T23:10:58.468Z,6.93
2019-03-27T23:13:26.784Z,6.92
2019-03-27T23:15:55.064Z,6.89
2019-03-27T23:18:23.323Z,6.88
2019-03-27T23:20:51.618Z,6.92
2019-03-27T23:23:19.899Z,6.90
2019-03-27T23:25:48.175Z,6.89
2019-03-27T23:28:16.432Z,6.89
2019-03-27T23:30:44.785Z,6.89
2019-03-27T23:33:13.051Z,6.90
2019-03-27T23:35:41.439Z,6.90
2019-03-27T23:38:09.705Z,6.87
2019-03-27T23:40:37.990Z,6.87
2019-03-27T23:43:06.309Z,6.87
2019-03-27T23:45:34.574Z,6.86
2019-03-27T23:48:02.844Z,6.84
2019-03-27T23:50:31.111Z,6.86
2019-03-27T23:52:59.500Z,6.87
2019-03-27T23:55:27.773Z,6.83
2019-03-27T23:57:56.035Z,6.79
